createdAt,value
2023-02-05T00:00:01.366Z,4.03
2023-02-05T00:05:02.874Z,4.00
2023-02-05T00:10:05.010Z,3.42
2023-02-05T00:15:06.969Z,3.30
2023-02-05T00:20:09.129Z,4.22
2023-02-05T00:25:10.671Z,3.60
2023-02-05T00:30:12.690Z,3.67
2023-02-05T00:35:14.150Z,3.22
2023-02-05T00:40:15.584Z,3.55
2023-02-05T00:45:17.155Z,4.22
2023-02-05T00:50:18.938Z,3.70
2023-02-05T00:55:20.404Z,3.05
2023-02-05T01:00:22.301Z,3.42
2023-02-05T01:05:23.763Z,3.58
2023-02-05T01:10:25.404Z,3.40
2023-02-05T01:15:26.986Z,3.45
2023-02-05T01:20:29.041Z,3.05
2023-02-05T01:25:30.520Z,3.90
2023-02-05T01:30:32.072Z,3.55
2023-02-05T01:35:33.912Z,4.55
2023-02-05T01:40:35.641Z,3.63
2023-02-05T01:46:06.878Z,4.10
2023-02-05T01:51:13.889Z,3.75
2023-02-05T01:56:29.767Z,3.60
2023-02-05T02:01:32.179Z,4.18
2023-02-05T02:06:35.953Z,3.45
2023-02-05T02:11:42.279Z,4.10
2023-02-05T02:16:44.031Z,3.60
2023-02-05T02:22:04.324Z,3.85
2023-02-05T02:27:21.165Z,3.65
2023-02-05T02:32:41.260Z,3.90
2023-02-05T02:37:52.560Z,3.80
2023-02-05T02:43:05.959Z,3.53
2023-02-05T02:48:08.004Z,3.88
2023-02-05T02:53:17.885Z,3.97
2023-02-05T02:58:37.840Z,4.53
2023-02-05T03:03:43.931Z,3.90
2023-02-05T03:08:53.176Z,3.95
2023-02-05T03:13:56.344Z,4.82
2023-02-05T03:18:58.395Z,4.10
2023-02-05T03:23:59.866Z,3.33
2023-02-05T03:29:04.898Z,3.65
2023-02-05T03:34:28.410Z,3.75
2023-02-05T03:39:38.586Z,3.65
2023-02-05T03:44:45.877Z,4.22
2023-02-05T03:49:54.634Z,6.50
2023-02-05T03:55:10.129Z,4.70
2023-02-05T04:00:12.894Z,4.78
2023-02-05T04:05:14.314Z,4.95
2023-02-05T04:10:16.711Z,6.13
2023-02-05T04:15:18.173Z,4.35
2023-02-05T04:20:19.725Z,4.28
2023-02-05T04:25:21.801Z,4.97
2023-02-05T04:30:23.234Z,6.05
2023-02-05T04:35:24.914Z,5.32
2023-02-05T04:40:26.347Z,5.13
2023-02-05T04:45:31.082Z,5.75
2023-02-05T04:50:33.015Z,7.68
2023-02-05T04:55:34.781Z,6.38
2023-02-05T05:00:36.486Z,4.85
2023-02-05T05:05:37.899Z,5.95
2023-02-05T05:10:39.334Z,4.03
2023-02-05T05:15:40.825Z,4.70
2023-02-05T05:20:42.744Z,6.47
2023-02-05T05:25:46.272Z,5.00
2023-02-05T05:30:48.295Z,5.43
2023-02-05T05:35:49.716Z,5.20
2023-02-05T05:41:09.711Z,4.18
2023-02-05T05:46:11.262Z,4.32
2023-02-05T05:51:12.708Z,4.85
2023-02-05T05:56:15.163Z,4.22
2023-02-05T06:01:19.082Z,4.45
2023-02-05T06:06:20.525Z,4.40
2023-02-05T06:11:22.069Z,4.90
2023-02-05T06:16:23.529Z,5.20
2023-02-05T06:21:25.130Z,6.07
2023-02-05T06:26:26.609Z,5.82
2023-02-05T06:31:28.509Z,6.72
2023-02-05T06:36:29.993Z,6.82
2023-02-05T06:41:31.406Z,6.05
2023-02-05T06:46:32.921Z,6.60
2023-02-05T06:51:34.372Z,7.88
2023-02-05T06:56:35.807Z,16.40
2023-02-05T07:01:37.233Z,6.90
2023-02-05T07:06:38.700Z,6.95
2023-02-05T07:11:40.127Z,12.73
2023-02-05T07:16:41.536Z,7.28
2023-02-05T07:21:43.103Z,6.95
2023-02-05T07:26:45.326Z,7.10
2023-02-05T07:31:49.552Z,5.85
2023-02-05T07:36:51.842Z,6.22
2023-02-05T07:41:53.594Z,5.45
2023-02-05T07:46:55.139Z,6.18
2023-02-05T07:51:56.610Z,6.18
2023-02-05T07:57:00.137Z,6.40
2023-02-05T08:02:01.600Z,6.43
2023-02-05T08:07:03.279Z,6.43
2023-02-05T08:12:05.620Z,5.70
2023-02-05T08:17:07.157Z,5.47
2023-02-05T08:22:08.586Z,7.57
2023-02-05T08:27:10.023Z,5.65
2023-02-05T08:32:11.459Z,5.47
2023-02-05T08:37:12.915Z,6.35
2023-02-05T08:42:14.352Z,6.07
2023-02-05T08:47:19.689Z,5.65
2023-02-05T08:52:21.215Z,5.30
2023-02-05T08:57:22.755Z,5.97
2023-02-05T09:02:27.528Z,5.50
2023-02-05T09:07:30.949Z,5.95
2023-02-05T09:12:32.366Z,8.43
2023-02-05T09:17:33.823Z,6.70
2023-02-05T09:22:35.250Z,5.82
2023-02-05T09:27:36.737Z,6.70
2023-02-05T09:32:38.167Z,7.38
2023-02-05T09:37:39.593Z,7.13
2023-02-05T09:42:59.707Z,6.57
2023-02-05T09:48:08.560Z,6.10
2023-02-05T09:53:18.437Z,5.50
2023-02-05T09:58:32.958Z,4.82
2023-02-05T10:03:44.499Z,5.00
2023-02-05T10:09:03.781Z,4.53
2023-02-05T10:14:15.278Z,4.72
2023-02-05T10:19:35.260Z,3.13
2023-02-05T10:24:46.264Z,2.30
2023-02-05T10:29:57.623Z,2.00
2023-02-05T10:35:04.584Z,5.18
2023-02-05T10:40:15.096Z,3.70
2023-02-05T10:45:25.307Z,3.47
2023-02-05T10:50:36.473Z,2.17
2023-02-05T10:55:38.155Z,2.00
2023-02-05T11:00:40.148Z,2.50
2023-02-05T11:05:41.698Z,3.10
2023-02-05T11:10:53.101Z,2.58
2023-02-05T11:15:57.852Z,3.17
2023-02-05T11:21:02.963Z,2.47
2023-02-05T11:26:10.607Z,3.25
2023-02-05T11:31:27.160Z,2.95
2023-02-05T11:36:28.828Z,3.00
2023-02-05T11:41:32.826Z,2.60
2023-02-05T11:46:42.915Z,2.50
2023-02-05T11:51:47.326Z,5.55
2023-02-05T11:57:22.302Z,2.50
2023-02-05T12:02:29.603Z,3.60
2023-02-05T12:07:41.146Z,2.38
2023-02-05T12:12:51.820Z,2.60
2023-02-05T12:18:34.325Z,7.90
2023-02-05T12:23:57.460Z,3.47
2023-02-05T12:29:01.579Z,2.30
2023-02-05T12:34:05.743Z,3.72
2023-02-05T12:39:28.305Z,4.10
2023-02-05T12:44:56.143Z,2.95
2023-02-05T12:50:12.309Z,3.03
2023-02-05T12:55:33.608Z,2.70
2023-02-05T13:00:51.590Z,3.95
2023-02-05T13:05:58.253Z,3.15
2023-02-05T13:11:07.859Z,2.80
2023-02-05T13:21:36.355Z,2.83
2023-02-05T13:27:02.621Z,3.60
2023-02-05T13:32:15.605Z,5.82
2023-02-05T13:37:50.260Z,3.00
2023-02-05T13:43:12.700Z,3.35
2023-02-05T13:48:36.380Z,2.97
2023-02-05T13:54:01.555Z,6.05
2023-02-05T13:59:11.072Z,3.63
2023-02-05T14:04:23.400Z,3.53
2023-02-05T14:09:44.664Z,6.00
2023-02-05T14:15:15.299Z,7.97
2023-02-05T14:20:25.882Z,4.07
2023-02-05T14:25:37.278Z,4.22
2023-02-05T14:30:47.977Z,3.50
2023-02-05T14:35:50.421Z,5.68
2023-02-05T14:41:16.206Z,5.25
2023-02-05T14:46:59.919Z,4.78
2023-02-05T14:52:04.904Z,3.90
2023-02-05T14:57:17.568Z,3.70
2023-02-05T15:02:48.052Z,4.40
2023-02-05T15:07:53.722Z,4.25
2023-02-05T15:13:02.171Z,4.80
2023-02-05T15:18:23.963Z,5.30
2023-02-05T15:23:46.412Z,9.68
2023-02-05T15:29:20.528Z,11.35
2023-02-05T15:34:28.652Z,14.93
2023-02-05T15:39:53.695Z,7.93
2023-02-05T15:44:55.124Z,8.68
2023-02-05T15:50:00.163Z,6.00
2023-02-05T15:55:12.434Z,7.10
2023-02-05T16:00:24.619Z,6.78
2023-02-05T16:05:27.616Z,6.38
2023-02-05T16:10:34.861Z,6.55
2023-02-05T16:15:41.654Z,7.05
2023-02-05T16:20:52.038Z,7.10
2023-02-05T16:26:10.147Z,15.65
2023-02-05T16:31:20.634Z,14.23
2023-02-05T16:36:24.822Z,11.35
2023-02-05T16:41:31.170Z,10.80
2023-02-05T16:46:35.066Z,13.63
2023-02-05T16:51:45.808Z,14.77
2023-02-05T16:57:02.312Z,15.30
2023-02-05T17:02:04.086Z,15.80
2023-02-05T17:07:17.298Z,15.80
2023-02-05T17:12:21.756Z,15.55
2023-02-05T17:17:25.020Z,14.48
2023-02-05T17:22:27.553Z,12.90
2023-02-05T17:27:36.026Z,12.88
2023-02-05T17:32:37.566Z,13.00
2023-02-05T17:37:39.020Z,12.68
2023-02-05T17:42:41.014Z,11.93
2023-02-05T17:47:42.987Z,12.18
2023-02-05T17:52:45.381Z,13.43
2023-02-05T17:57:46.844Z,14.32
2023-02-05T18:02:48.617Z,18.85
2023-02-05T18:07:53.188Z,16.88
2023-02-05T18:12:56.081Z,18.27
2023-02-05T18:17:57.504Z,17.25
2023-02-05T18:22:58.983Z,18.90
2023-02-05T18:28:00.494Z,17.15
2023-02-05T18:33:02.051Z,17.75
2023-02-05T18:38:03.476Z,17.80
2023-02-05T18:43:04.977Z,17.90
2023-02-05T18:48:06.397Z,24.25
2023-02-05T18:53:07.853Z,25.88
2023-02-05T18:58:09.391Z,22.42
2023-02-05T19:03:11.937Z,26.88
2023-02-05T19:08:13.368Z,31.45
2023-02-05T19:13:14.884Z,36.70
2023-02-05T19:18:16.295Z,31.70
2023-02-05T19:23:17.719Z,29.27
2023-02-05T19:28:19.170Z,25.70
2023-02-05T19:33:20.620Z,28.23
2023-02-05T19:38:22.084Z,27.10
2023-02-05T19:43:23.527Z,27.92
2023-02-05T19:48:25.045Z,46.47
2023-02-05T19:53:26.965Z,36.35
2023-02-05T19:58:30.129Z,31.83
2023-02-05T20:03:31.541Z,27.88
2023-02-05T20:08:32.957Z,29.73
2023-02-05T20:13:36.109Z,27.58
2023-02-05T20:18:38.766Z,27.52
2023-02-05T20:23:40.515Z,28.02
2023-02-05T20:29:00.698Z,27.05
2023-02-05T20:34:04.272Z,25.70
2023-02-05T20:39:07.504Z,26.52
2023-02-05T20:44:08.937Z,26.02
2023-02-05T20:49:10.511Z,26.65
2023-02-05T20:54:12.434Z,26.67
2023-02-05T20:59:13.908Z,27.27
2023-02-05T21:04:15.364Z,26.20
2023-02-05T21:09:17.022Z,27.67
2023-02-05T21:14:18.704Z,28.88
2023-02-05T21:19:20.223Z,29.23
2023-02-05T21:24:21.796Z,29.23
2023-02-05T21:29:23.318Z,30.67
2023-02-05T21:34:27.224Z,28.88
2023-02-05T21:39:28.646Z,28.27
2023-02-05T21:44:30.138Z,27.20
2023-02-05T21:49:31.790Z,29.40
2023-02-05T21:54:33.373Z,28.50
2023-02-05T21:59:34.782Z,26.10
2023-02-05T22:04:36.789Z,25.77
2023-02-05T22:09:38.288Z,26.05
2023-02-05T22:14:39.698Z,25.58
2023-02-05T22:19:41.176Z,25.33
2023-02-05T22:24:42.608Z,26.00
2023-02-05T22:29:44.138Z,24.50
2023-02-05T22:34:45.567Z,25.55
2023-02-05T22:39:47.879Z,26.02
2023-02-05T22:44:49.301Z,26.58
2023-02-05T22:49:50.818Z,27.05
2023-02-05T22:54:52.247Z,27.13
2023-02-05T22:59:54.278Z,27.45
2023-02-05T23:04:55.738Z,26.33
2023-02-05T23:09:57.152Z,26.38
2023-02-05T23:14:58.636Z,28.33
2023-02-05T23:20:00.176Z,25.88
2023-02-05T23:25:01.843Z,26.98
2023-02-05T23:30:04.497Z,29.00
2023-02-05T23:35:06.681Z,29.35
2023-02-05T23:40:08.540Z,30.70
2023-02-05T23:45:09.989Z,33.45
2023-02-05T23:50:11.421Z,38.60
2023-02-05T23:55:12.890Z,33.88
